Time;durP1;ratioP1;P1;durP2;ratioP2;P2;SDS_P1;SDS_P2;PMS_P1;PMS_P2;Temp;Humidity;BMP_temperature;BMP_pressure;BME280_temperature;BME280_humidity;BME280_pressure;Samples;Min_cycle;Max_cycle;Signal;HPM_P1;HPM_P2
2023/11/29 00:02:19;;;;;;;5.95;2.90;;;;;;;3.08;76.63;99294.41;5005682;28;20041;-45
2023/11/29 00:04:46;;;;;;;7.07;2.67;;;;;;;3.08;77.14;99294.41;5006301;28;20096;-45
2023/11/29 00:07:13;;;;;;;8.00;3.17;;;;;;;3.10;77.24;99297.00;5003439;28;20049;-45
2023/11/29 00:09:39;;;;;;;5.75;2.00;;;;;;;3.13;77.04;99296.19;5006686;28;20045;-45
2023/11/29 00:12:06;;;;;;;7.35;2.70;;;;;;;3.13;77.19;99297.06;5004809;28;20049;-46
2023/11/29 00:14:33;;;;;;;7.35;2.92;;;;;;;3.13;77.20;99302.19;5005327;28;20053;-45
2023/11/29 00:17:01;;;;;;;6.43;3.13;;;;;;;3.16;77.26;99301.34;5004122;28;20140;-42
2023/11/29 00:19:37;;;;;;;;;;;;;;;3.15;77.25;99307.31;5003651;28;20474;-50
2023/11/29 00:22:05;;;;;;;9.52;3.05;;;;;;;3.19;77.43;99311.66;5000081;28;19928;-44
2023/11/29 00:24:32;;;;;;;6.25;3.28;;;;;;;3.22;77.49;99309.16;5008766;28;20053;-44
2023/11/29 00:26:58;;;;;;;7.50;3.53;;;;;;;3.25;77.52;99300.66;5007675;28;20045;-49
2023/11/29 00:29:25;;;;;;;5.35;2.80;;;;;;;3.27;77.46;99294.72;5007649;28;20097;-43
2023/11/29 00:31:52;;;;;;;8.07;2.92;;;;;;;3.29;76.92;99293.03;5009958;28;20053;-45
2023/11/29 00:34:19;;;;;;;7.50;3.42;;;;;;;3.31;77.22;99296.47;5006098;28;20050;-45
2023/11/29 00:36:48;;;;;;;6.10;3.00;;;;;;;3.32;76.54;99295.63;5003734;28;20053;-43
2023/11/29 00:39:14;;;;;;;10.20;3.58;;;;;;;3.33;76.94;99288.81;5008227;28;20072;-43
2023/11/29 00:41:42;;;;;;;6.97;3.00;;;;;;;3.33;77.45;99274.31;5006628;28;20478;-44
2023/11/29 00:44:09;;;;;;;6.88;2.90;;;;;;;3.32;76.75;99282.81;5013388;28;20157;-42
2023/11/29 00:46:36;;;;;;;7.57;3.10;;;;;;;3.32;77.01;99287.94;5002646;28;20131;-41
2023/11/29 00:49:02;;;;;;;10.35;3.55;;;;;;;3.31;77.63;99291.34;5002240;28;20056;-42
2023/11/29 00:51:29;;;;;;;7.20;3.25;;;;;;;3.31;77.69;99285.38;5002396;28;20388;-40
2023/11/29 00:53:56;;;;;;;8.75;3.28;;;;;;;3.31;77.24;99286.22;5007491;28;20050;-43
2023/11/29 00:56:22;;;;;;;10.57;3.35;;;;;;;3.29;77.47;99293.03;5003836;28;20487;-45
2023/11/29 00:58:49;;;;;;;7.10;2.83;;;;;;;3.26;77.49;99285.31;5003286;28;20218;-42
2023/11/29 01:01:16;;;;;;;8.70;4.32;;;;;;;3.23;77.39;99292.94;5006923;28;20052;-43
2023/11/29 01:03:43;;;;;;;7.22;3.47;;;;;;;3.18;77.23;99289.47;5011459;28;20063;-50
2023/11/29 01:06:10;;;;;;;9.57;3.38;;;;;;;3.14;76.75;99282.56;5008345;28;20093;-45
2023/11/29 01:08:36;;;;;;;6.65;3.38;;;;;;;3.08;77.32;99279.06;5014122;28;20099;-47
2023/11/29 01:11:04;;;;;;;9.57;3.50;;;;;;;3.03;76.95;99270.47;5016726;28;20052;-46
2023/11/29 01:13:31;;;;;;;9.68;4.55;;;;;;;2.97;76.83;99264.41;5009649;28;20037;-47
2023/11/29 01:15:58;;;;;;;8.63;3.83;;;;;;;2.90;76.82;99261.75;5013416;28;20058;-44
2023/11/29 01:18:27;;;;;;;7.13;3.40;;;;;;;2.85;77.38;99265.06;5013661;28;20046;-49
2023/11/29 01:20:54;;;;;;;9.75;4.25;;;;;;;2.78;76.81;99259.00;5021956;28;20079;-51
2023/11/29 01:23:21;;;;;;;8.23;3.28;;;;;;;2.72;77.71;99264.88;5007593;28;20081;-43
2023/11/29 01:25:48;;;;;;;11.00;4.35;;;;;;;2.67;77.77;99256.28;5013196;28;20119;-47
2023/11/29 01:28:14;;;;;;;8.27;4.18;;;;;;;2.63;77.38;99262.16;5018171;28;20056;-43
2023/11/29 01:30:41;;;;;;;8.15;3.35;;;;;;;2.57;77.44;99256.09;5013043;28;20046;-48
2023/11/29 01:33:08;;;;;;;9.18;3.47;;;;;;;2.53;76.88;99264.56;5007239;28;20120;-43
2023/11/29 01:35:34;;;;;;;6.85;3.80;;;;;;;2.50;77.63;99264.50;5015837;28;20053;-42
2023/11/29 01:38:01;;;;;;;11.40;4.90;;;;;;;2.46;77.77;99257.59;5019855;28;20136;-44
2023/11/29 01:40:28;;;;;;;9.13;3.67;;;;;;;2.44;77.94;99267.78;5006812;28;20049;-42
2023/11/29 01:42:54;;;;;;;8.60;4.00;;;;;;;2.43;76.82;99267.75;5013652;28;20111;-46
2023/11/29 01:45:21;;;;;;;13.50;5.97;;;;;;;2.43;77.26;99262.66;5018079;28;20045;-44
2023/11/29 01:47:48;;;;;;;15.73;4.53;;;;;;;2.42;77.75;99272.03;5014393;28;20045;-48
2023/11/29 01:50:16;;;;;;;8.57;4.38;;;;;;;2.44;78.41;99269.50;5010103;28;20045;-47
2023/11/29 01:52:44;;;;;;;11.90;4.50;;;;;;;2.43;78.44;99272.88;5019351;28;20049;-45
2023/11/29 01:55:12;;;;;;;10.15;4.30;;;;;;;2.44;77.79;99269.50;5004919;28;20461;-46
2023/11/29 01:57:41;;;;;;;8.98;4.63;;;;;;;2.44;77.47;99264.41;5004885;28;20046;-44
2023/11/29 02:00:08;;;;;;;10.07;4.13;;;;;;;2.43;77.52;99260.97;5008458;28;20045;-43
2023/11/29 02:02:35;;;;;;;11.68;4.15;;;;;;;2.43;77.27;99267.75;5002017;28;20114;-43
2023/11/29 02:05:02;;;;;;;10.55;4.07;;;;;;;2.38;78.32;99259.16;5009898;28;20046;-45
2023/11/29 02:07:29;;;;;;;10.65;5.57;;;;;;;2.35;77.89;99259.97;4998651;28;20419;-46
2023/11/29 02:09:56;;;;;;;10.05;5.00;;;;;;;2.31;78.18;99264.19;5004219;28;20057;-44
2023/11/29 02:12:23;;;;;;;10.55;4.82;;;;;;;2.27;77.09;99252.16;5012114;28;20045;-49
2023/11/29 02:14:50;;;;;;;11.18;4.78;;;;;;;2.24;77.68;99257.25;5011646;28;20049;-42
2023/11/29 02:17:17;;;;;;;9.75;4.63;;;;;;;2.18;77.28;99252.88;5011072;28;20464;-48
2023/11/29 02:19:43;;;;;;;10.93;4.97;;;;;;;2.15;77.88;99251.94;5004557;28;20042;-46
2023/11/29 02:22:10;;;;;;;11.73;4.72;;;;;;;2.10;76.94;99253.56;5004059;28;20069;-44
2023/11/29 02:24:42;;;;;;;10.23;4.20;;;;;;;2.07;77.63;99250.94;5002027;28;20053;-45
2023/11/29 02:27:09;;;;;;;11.98;4.97;;;;;;;2.03;77.16;99253.44;5006784;28;20088;-43
2023/11/29 02:29:38;;;;;;;11.20;4.80;;;;;;;1.99;78.28;99245.69;5002802;28;20115;-45
2023/11/29 02:32:06;;;;;;;10.52;4.90;;;;;;;1.96;77.64;99245.63;5005416;28;20056;-45
2023/11/29 02:34:35;;;;;;;13.20;5.28;;;;;;;1.93;77.84;99246.44;5001559;28;20041;-47
2023/11/29 02:37:04;;;;;;;11.80;5.30;;;;;;;1.90;78.41;99246.38;5005353;28;20042;-46
2023/11/29 02:39:31;;;;;;;11.75;5.30;;;;;;;1.85;78.14;99236.06;5004347;28;20053;-40
2023/11/29 02:41:58;;;;;;;15.25;5.72;;;;;;;1.80;77.22;99242.78;5006073;28;20049;-42
2023/11/29 02:44:24;;;;;;;13.20;5.00;;;;;;;1.77;77.44;99238.47;5000646;28;20053;-46
2023/11/29 02:46:51;;;;;;;9.65;5.30;;;;;;;1.74;77.61;99240.97;5004438;28;20058;-43
2023/11/29 02:49:18;;;;;;;12.40;5.32;;;;;;;1.70;78.33;99231.53;5006797;28;20612;-47
2023/11/29 02:51:45;;;;;;;13.93;6.15;;;;;;;1.67;77.76;99228.91;5005035;28;20049;-47
2023/11/29 02:54:11;;;;;;;12.52;5.80;;;;;;;1.64;77.42;99228.84;5008416;28;20042;-44
2023/11/29 02:56:38;;;;;;;12.65;5.70;;;;;;;1.60;77.32;99221.94;5007805;28;20053;-45
2023/11/29 02:59:05;;;;;;;10.75;4.63;;;;;;;1.56;77.01;99212.50;5009789;28;20145;-44
2023/11/29 03:01:31;;;;;;;10.75;4.93;;;;;;;1.51;77.88;99215.81;5016323;28;20080;-42
2023/11/29 03:03:58;;;;;;;14.75;5.70;;;;;;;1.48;77.15;99213.19;4995288;28;20265;-44
2023/11/29 03:06:25;;;;;;;13.10;4.82;;;;;;;1.44;76.92;99213.97;5003927;28;20100;-47
2023/11/29 03:08:52;;;;;;;14.95;5.10;;;;;;;1.40;77.28;99220.72;5005453;28;20056;-42
2023/11/29 03:11:18;;;;;;;11.75;5.07;;;;;;;1.35;78.28;99222.28;5014730;28;20060;-42
2023/11/29 03:13:45;;;;;;;14.82;5.57;;;;;;;1.32;77.18;99216.28;5008434;28;20072;-47
2023/11/29 03:16:11;;;;;;;13.32;5.15;;;;;;;1.28;77.24;99225.53;5006854;28;20054;-48
2023/11/29 03:18:38;;;;;;;18.83;6.00;;;;;;;1.25;78.27;99221.22;5010192;28;20050;-44
2023/11/29 03:21:05;;;;;;;19.38;7.40;;;;;;;1.22;78.28;99210.94;5008287;28;20050;-46
2023/11/29 03:23:32;;;;;;;19.30;7.70;;;;;;;1.19;77.38;99210.91;5011554;28;20046;-50
2023/11/29 03:26:04;;;;;;;15.82;6.28;;;;;;;1.15;76.87;99204.03;5012653;28;20056;-45
2023/11/29 03:28:30;;;;;;;13.20;5.95;;;;;;;1.14;76.92;99204.81;5009783;28;20077;-43
2023/11/29 03:30:57;;;;;;;14.80;5.60;;;;;;;1.11;78.01;99197.97;5008819;28;20046;-46
2023/11/29 03:33:24;;;;;;;11.80;5.28;;;;;;;1.09;77.52;99194.53;5003938;28;20053;-45
2023/11/29 03:35:51;;;;;;;18.20;5.78;;;;;;;1.06;76.99;99198.69;5020345;28;20045;-47
2023/11/29 03:38:17;;;;;;;22.98;6.43;;;;;;;1.04;77.66;99195.28;5014980;28;20054;-43
2023/11/29 03:40:44;;;;;;;22.25;6.82;;;;;;;1.01;76.96;99196.03;5014249;28;20057;-46
2023/11/29 03:43:11;;;;;;;17.10;6.65;;;;;;;0.98;77.23;99191.72;5013333;28;20120;-49
2023/11/29 03:45:38;;;;;;;13.80;5.90;;;;;;;0.95;78.42;99185.72;5005794;28;20060;-46
2023/11/29 03:48:04;;;;;;;18.58;7.40;;;;;;;0.93;76.86;99185.69;5012799;28;20057;-45
2023/11/29 03:50:31;;;;;;;13.38;6.25;;;;;;;0.90;78.42;99185.59;5018032;28;20057;-46
2023/11/29 03:52:58;;;;;;;18.15;7.80;;;;;;;0.88;77.82;99189.81;5014897;28;20049;-43
2023/11/29 03:55:25;;;;;;;26.27;8.98;;;;;;;0.85;78.14;99184.66;5021689;28;20042;-43
2023/11/29 03:57:51;;;;;;;23.45;8.10;;;;;;;0.83;77.55;99183.75;5008607;28;20050;-44
2023/11/29 04:00:18;;;;;;;24.38;7.40;;;;;;;0.80;77.44;99169.25;5006830;28;20046;-47
2023/11/29 04:02:45;;;;;;;15.23;6.40;;;;;;;0.80;77.72;99170.91;5010596;28;20183;-45
2023/11/29 04:05:13;;;;;;;22.90;5.70;;;;;;;0.79;78.03;99171.75;5025104;28;20052;-46
2023/11/29 04:07:41;;;;;;;12.73;5.60;;;;;;;0.77;77.90;99172.59;5014470;28;20050;-43
2023/11/29 04:10:08;;;;;;;16.58;6.40;;;;;;;0.77;78.31;99171.72;5011046;28;20154;-41
2023/11/29 04:12:36;;;;;;;17.88;6.03;;;;;;;0.75;77.54;99174.22;5009495;28;20136;-45
2023/11/29 04:15:03;;;;;;;13.20;6.15;;;;;;;0.75;77.93;99165.72;5012679;28;20049;-46
2023/11/29 04:17:29;;;;;;;17.52;5.82;;;;;;;0.72;77.84;99169.09;5006274;28;20491;-46
2023/11/29 04:19:56;;;;;;;13.68;4.93;;;;;;;0.72;77.47;99166.53;5011325;28;20426;-48
2023/11/29 04:22:23;;;;;;;12.38;6.38;;;;;;;0.70;76.89;99168.16;5016897;28;20041;-45
2023/11/29 04:24:50;;;;;;;16.63;6.40;;;;;;;0.68;77.04;99157.09;5009439;28;20053;-48
2023/11/29 04:27:17;;;;;;;15.82;5.43;;;;;;;0.68;78.08;99157.09;5006661;28;20141;-48
2023/11/29 04:29:43;;;;;;;16.17;6.45;;;;;;;0.67;76.90;99147.69;5012917;28;20042;-48
2023/11/29 04:32:10;;;;;;;13.73;6.15;;;;;;;0.66;77.30;99148.53;5013857;28;20132;-45
2023/11/29 04:34:37;;;;;;;17.60;6.20;;;;;;;0.65;78.19;99151.91;5017617;28;20045;-44
2023/11/29 04:37:13;;;;;;;19.08;6.93;;;;;;;0.62;77.31;99147.63;5006600;28;20049;-40
2023/11/29 04:39:40;;;;;;;17.15;5.75;;;;;;;0.61;77.86;99150.13;5016021;28;20053;-51
2023/11/29 04:42:07;;;;;;;15.25;5.57;;;;;;;0.60;77.04;99148.38;5008643;28;20046;-45
2023/11/29 04:44:35;;;;;;;16.08;5.72;;;;;;;0.57;76.99;99155.97;5022067;28;20545;-45
2023/11/29 04:47:03;;;;;;;15.73;6.32;;;;;;;0.51;77.05;99147.34;5009626;28;20100;-45
2023/11/29 04:49:30;;;;;;;16.23;4.68;;;;;;;0.50;77.59;99157.50;5005743;28;20058;-47
2023/11/29 04:51:57;;;;;;;10.18;4.63;;;;;;;0.47;77.02;99153.19;5017794;28;20365;-43
2023/11/29 04:54:23;;;;;;;17.10;4.72;;;;;;;0.45;77.52;99154.88;4999751;28;20050;-43
2023/11/29 04:56:50;;;;;;;11.90;4.28;;;;;;;0.42;76.97;99147.16;4990446;28;20505;-45
2023/11/29 04:59:17;;;;;;;8.95;4.63;;;;;;;0.42;77.31;99138.63;5006646;28;20120;-43
2023/11/29 05:01:44;;;;;;;12.40;5.07;;;;;;;0.41;77.34;99131.81;5008815;28;20053;-43
2023/11/29 05:04:11;;;;;;;11.55;4.35;;;;;;;0.42;77.55;99136.94;5004967;28;20061;-44
2023/11/29 05:06:38;;;;;;;18.75;5.47;;;;;;;0.41;76.94;99132.69;5009529;28;20510;-40
2023/11/29 05:09:06;;;;;;;10.73;4.28;;;;;;;0.40;77.68;99138.59;5006630;28;20076;-46
2023/11/29 05:11:33;;;;;;;11.77;5.05;;;;;;;0.40;77.78;99138.59;5008652;28;20639;-42
2023/11/29 05:14:00;;;;;;;13.05;4.72;;;;;;;0.37;77.98;99128.31;5003750;28;20081;-46
2023/11/29 05:16:27;;;;;;;12.20;5.18;;;;;;;0.33;77.88;99129.06;5008291;28;20041;-44
2023/11/29 05:18:53;;;;;;;16.50;5.75;;;;;;;0.33;77.37;99129.06;5013686;28;20064;-46
2023/11/29 05:21:21;;;;;;;16.48;5.90;;;;;;;0.30;78.03;99126.47;5009573;28;20226;-46
2023/11/29 05:23:47;;;;;;;14.85;6.40;;;;;;;0.29;77.83;99134.91;5009845;28;20048;-41
2023/11/29 05:26:14;;;;;;;14.73;5.35;;;;;;;0.28;76.94;99134.06;5013841;28;20045;-48
2023/11/29 05:28:41;;;;;;;14.13;5.65;;;;;;;0.27;77.61;99134.88;5011573;28;20050;-48
2023/11/29 05:31:08;;;;;;;13.73;4.57;;;;;;;0.26;77.61;99133.16;5010115;28;20038;-45
2023/11/29 05:33:34;;;;;;;11.55;5.03;;;;;;;0.24;77.65;99135.66;5005693;28;20070;-47
2023/11/29 05:36:01;;;;;;;15.30;4.63;;;;;;;0.22;77.09;99141.56;5014890;28;20099;-43
2023/11/29 05:38:28;;;;;;;10.80;5.47;;;;;;;0.19;77.91;99150.00;5010331;28;20053;-51
2023/11/29 05:40:55;;;;;;;18.23;4.22;;;;;;;0.19;77.43;99150.00;5008187;28;20133;-45
2023/11/29 05:43:21;;;;;;;12.20;5.15;;;;;;;0.16;77.60;99147.34;5009876;28;20520;-46
2023/11/29 05:45:49;;;;;;;9.05;3.33;;;;;;;0.14;77.53;99143.94;5017631;28;20103;-46
2023/11/29 05:48:15;;;;;;;10.10;4.65;;;;;;;0.14;77.59;99143.06;5014947;28;20169;-46
2023/11/29 05:50:42;;;;;;;13.68;5.38;;;;;;;0.13;77.75;99142.19;5022152;28;22753;-48
2023/11/29 05:53:09;;;;;;;13.82;4.18;;;;;;;0.13;77.82;99142.19;5014739;28;20049;-46
2023/11/29 05:55:36;;;;;;;11.43;4.25;;;;;;;0.11;77.25;99144.69;5002475;28;20042;-43
2023/11/29 05:58:03;;;;;;;10.93;4.43;;;;;;;0.09;76.97;99145.47;5012808;28;20049;-46
2023/11/29 06:00:30;;;;;;;10.50;4.28;;;;;;;0.07;77.94;99142.88;5010215;28;20135;-44
2023/11/29 06:02:59;;;;;;;12.27;4.88;;;;;;;0.05;77.44;99142.00;5004504;28;20045;-48
2023/11/29 06:05:28;;;;;;;11.90;3.83;;;;;;;0.03;77.79;99141.09;5003819;28;20053;-49
2023/11/29 06:07:55;;;;;;;8.20;3.95;;;;;;;-0.01;77.08;99142.72;5001321;28;20458;-44
2023/11/29 06:10:21;;;;;;;11.93;3.38;;;;;;;-0.02;77.34;99135.91;4999308;28;20078;-45
2023/11/29 06:12:48;;;;;;;10.70;4.45;;;;;;;-0.04;77.24;99135.00;5002386;28;20173;-41
2023/11/29 06:15:15;;;;;;;6.72;3.20;;;;;;;-0.05;76.92;99142.59;5000021;28;20050;-47
2023/11/29 06:17:42;;;;;;;10.13;3.95;;;;;;;-0.07;77.13;99150.19;5000562;28;20056;-45
2023/11/29 06:20:11;;;;;;;8.05;3.60;;;;;;;-0.09;77.20;99146.75;4998463;28;20076;-41
2023/11/29 06:22:38;;;;;;;9.35;3.00;;;;;;;-0.11;77.44;99143.28;5001526;28;20125;-49
2023/11/29 06:25:07;;;;;;;8.63;4.05;;;;;;;-0.13;77.54;99139.84;5000765;28;20054;-44
2023/11/29 06:27:35;;;;;;;9.10;4.22;;;;;;;-0.17;77.45;99140.59;4998718;28;20087;-46
2023/11/29 06:30:03;;;;;;;12.45;4.53;;;;;;;-0.20;77.07;99137.97;4993166;28;20046;-46
2023/11/29 06:32:31;;;;;;;15.07;5.35;;;;;;;-0.20;77.47;99143.91;5001169;28;20062;-43
2023/11/29 06:34:58;;;;;;;11.15;3.80;;;;;;;-0.22;77.47;99139.59;5000583;28;20065;-44
2023/11/29 06:37:25;;;;;;;8.48;4.18;;;;;;;-0.24;77.11;99137.00;5002196;28;20050;-46
2023/11/29 06:39:53;;;;;;;12.13;4.35;;;;;;;-0.26;77.54;99139.50;5002778;28;20094;-50
2023/11/29 06:42:20;;;;;;;9.90;4.05;;;;;;;-0.28;77.71;99141.19;5001252;28;20056;-43
2023/11/29 06:44:48;;;;;;;9.45;3.78;;;;;;;-0.30;77.39;99142.81;5000469;28;20192;-43
2023/11/29 06:47:17;;;;;;;13.43;3.92;;;;;;;-0.32;77.57;99134.28;5000268;28;20092;-45
2023/11/29 06:49:44;;;;;;;9.90;3.35;;;;;;;-0.34;77.10;99140.16;5003019;28;20045;-46
2023/11/29 06:52:12;;;;;;;11.23;3.97;;;;;;;-0.37;77.11;99140.94;5001594;28;20538;-50
2023/11/29 06:54:39;;;;;;;6.07;3.40;;;;;;;-0.38;77.71;99139.19;4996934;28;20458;-49
2023/11/29 06:57:06;;;;;;;9.10;4.03;;;;;;;-0.39;77.39;99142.56;5001149;28;20132;-46
2023/11/29 06:59:34;;;;;;;11.07;3.88;;;;;;;-0.40;77.28;99140.84;4999213;28;20092;-45
2023/11/29 07:02:04;;;;;;;11.80;5.28;;;;;;;-0.43;77.65;99136.53;5016199;28;20061;-50
2023/11/29 07:04:31;;;;;;;9.05;3.95;;;;;;;-0.43;77.28;99140.75;5002984;28;20638;-46
2023/11/29 07:06:59;;;;;;;9.65;4.15;;;;;;;-0.45;77.25;99142.38;5010628;28;20046;-40
2023/11/29 07:09:27;;;;;;;14.23;4.05;;;;;;;-0.47;77.22;99133.88;4998613;28;20045;-47
2023/11/29 07:11:54;;;;;;;9.43;4.40;;;;;;;-0.50;76.79;99143.97;5006741;28;20474;-40
2023/11/29 07:14:23;;;;;;;11.13;5.80;;;;;;;-0.54;77.10;99127.75;5007182;28;20084;-46
2023/11/29 07:16:50;;;;;;;10.80;4.70;;;;;;;-0.57;77.41;99136.16;5015970;28;20050;-45
2023/11/29 07:19:18;;;;;;;18.73;4.63;;;;;;;-0.58;77.15;99131.88;5018115;28;20052;-48
2023/11/29 07:21:45;;;;;;;12.02;4.38;;;;;;;-0.59;77.14;99139.47;5013175;28;20148;-42
2023/11/29 07:24:12;;;;;;;12.55;5.93;;;;;;;-0.60;77.05;99133.53;5018742;28;20401;-48
2023/11/29 07:26:38;;;;;;;21.23;6.95;;;;;;;-0.62;77.53;99127.53;5003491;28;20385;-45
2023/11/29 07:29:05;;;;;;;34.17;9.57;;;;;;;-0.63;77.45;99130.03;5009761;28;20046;-53
2023/11/29 07:31:33;;;;;;;20.70;8.60;;;;;;;-0.63;77.51;99127.50;5009829;28;20065;-43
2023/11/29 07:34:00;;;;;;;30.52;10.35;;;;;;;-0.65;77.23;99124.91;5010815;28;20508;-42
2023/11/29 07:36:27;;;;;;;25.85;10.00;;;;;;;-0.65;77.54;99124.91;5018618;28;20057;-48
2023/11/29 07:38:57;;;;;;;49.90;14.13;;;;;;;-0.66;77.22;99128.28;5022217;28;20054;-44
2023/11/29 07:41:25;;;;;;;70.75;18.42;;;;;;;-0.66;77.19;99128.28;5014043;28;20053;-44
2023/11/29 07:43:51;;;;;;;73.53;20.90;;;;;;;-0.68;77.14;99122.25;5007626;28;20049;-42
2023/11/29 07:46:18;;;;;;;45.83;13.57;;;;;;;-0.68;77.26;99119.72;5008977;28;20127;-48
2023/11/29 07:48:45;;;;;;;31.88;11.18;;;;;;;-0.69;77.50;99130.72;5014162;28;20052;-45
2023/11/29 07:51:12;;;;;;;20.13;6.90;;;;;;;-0.70;77.23;99129.00;5013010;28;20065;-45
2023/11/29 07:53:38;;;;;;;24.02;7.35;;;;;;;-0.70;77.07;99126.47;5014813;28;20042;-45
2023/11/29 07:56:07;;;;;;;21.70;9.23;;;;;;;-0.70;77.09;99131.53;5011613;28;20099;-45
2023/11/29 07:58:34;;;;;;;31.38;9.15;;;;;;;-0.70;77.50;99124.78;5007413;28;20395;-45
2023/11/29 08:01:02;;;;;;;15.93;6.45;;;;;;;-0.66;77.27;99118.09;5007302;28;20038;-44
2023/11/29 08:03:29;;;;;;;25.77;9.15;;;;;;;-0.62;77.00;99122.44;5007439;28;20042;-45
2023/11/29 08:05:56;;;;;;;35.50;13.02;;;;;;;-0.58;77.70;99120.88;5010486;28;20059;-48
2023/11/29 08:08:24;;;;;;;23.08;10.93;;;;;;;-0.50;77.41;99123.59;5009838;28;20160;-45
2023/11/29 08:10:51;;;;;;;28.95;10.20;;;;;;;-0.52;77.28;99121.88;5001111;28;20054;-45
2023/11/29 08:13:17;;;;;;;23.20;8.55;;;;;;;-0.48;77.53;99122.81;5007588;28;20073;-48
2023/11/29 08:15:44;;;;;;;20.40;9.70;;;;;;;-0.42;77.72;99127.22;5006853;28;20052;-46
2023/11/29 08:18:11;;;;;;;18.48;7.90;;;;;;;-0.35;76.75;99124.00;5008073;28;20471;-48
2023/11/29 08:20:38;;;;;;;20.63;9.50;;;;;;;-0.31;76.94;99136.00;5008126;28;20046;-45
2023/11/29 08:23:05;;;;;;;21.85;9.05;;;;;;;-0.23;77.46;99122.63;5010074;28;20512;-45
2023/11/29 08:25:32;;;;;;;20.70;8.55;;;;;;;-0.13;77.62;99122.88;5007631;28;20050;-45
2023/11/29 08:27:59;;;;;;;18.95;8.00;;;;;;;-0.04;77.47;99118.84;5008074;28;20565;-43
2023/11/29 08:30:26;;;;;;;16.52;7.20;;;;;;;0.01;77.00;99116.41;5003750;28;20171;-43
2023/11/29 08:32:52;;;;;;;17.40;8.43;;;;;;;0.07;76.96;99116.59;5005506;28;20570;-46
2023/11/29 08:35:19;;;;;;;27.55;11.18;;;;;;;0.13;77.08;99119.25;5004167;28;20389;-52
2023/11/29 08:37:48;;;;;;;18.35;9.38;;;;;;;0.19;77.12;99124.53;5007234;28;20057;-44
2023/11/29 08:40:15;;;;;;;24.02;10.52;;;;;;;0.27;76.63;99119.59;5007395;28;20485;-40
2023/11/29 08:42:42;;;;;;;22.35;10.40;;;;;;;0.34;76.74;99130.81;5008922;28;20053;-41
2023/11/29 08:45:09;;;;;;;19.42;9.10;;;;;;;0.38;77.06;99122.41;5009674;28;20174;-43
2023/11/29 08:47:36;;;;;;;19.20;9.48;;;;;;;0.42;77.45;99126.75;5020643;28;20560;-48
2023/11/29 08:50:05;;;;;;;22.73;9.18;;;;;;;0.50;77.05;99120.16;5023000;28;20041;-42
2023/11/29 08:52:32;;;;;;;26.10;10.55;;;;;;;0.64;76.62;99119.59;5019869;28;20132;-44
2023/11/29 08:54:59;;;;;;;27.63;10.60;;;;;;;0.82;77.39;99118.28;5020291;28;20046;-49
2023/11/29 08:57:26;;;;;;;34.72;12.57;;;;;;;1.06;78.03;99117.09;5015508;28;20069;-44
2023/11/29 08:59:53;;;;;;;23.88;9.50;;;;;;;1.30;77.20;99110.75;5013264;28;20112;-43
2023/11/29 09:02:23;;;;;;;14.88;6.03;;;;;;;1.42;76.65;99113.56;5012221;28;20046;-43
2023/11/29 09:04:50;;;;;;;14.07;5.95;;;;;;;1.57;76.77;99114.66;5008096;28;20089;-47
2023/11/29 09:07:17;;;;;;;17.42;5.93;;;;;;;1.73;77.27;99116.69;5005229;28;20057;-40
2023/11/29 09:09:45;;;;;;;15.63;7.38;;;;;;;1.97;77.31;99120.50;5017408;28;20065;-44
2023/11/29 09:12:12;;;;;;;17.52;6.78;;;;;;;2.49;77.32;99119.63;5014619;28;20133;-46
2023/11/29 09:14:39;;;;;;;28.52;10.68;;;;;;;3.14;78.02;99116.25;5007850;28;20042;-45
2023/11/29 09:17:06;;;;;;;26.35;10.95;;;;;;;3.89;78.11;99117.03;5011547;28;20487;-51
2023/11/29 09:19:34;;;;;;;30.15;12.25;;;;;;;4.71;77.89;99106.56;5014453;28;20046;-45
2023/11/29 09:22:01;;;;;;;22.33;8.32;;;;;;;5.46;76.24;99106.88;5012738;28;20066;-46
2023/11/29 09:24:28;;;;;;;21.60;8.95;;;;;;;6.16;76.03;99115.63;5012992;28;20057;-45
2023/11/29 09:26:55;;;;;;;23.73;8.02;;;;;;;6.72;74.29;99119.81;5019347;28;20107;-49
2023/11/29 09:29:26;;;;;;;21.48;8.10;;;;;;;7.20;73.24;99111.97;5013291;28;20053;-43
2023/11/29 09:31:53;;;;;;;17.30;7.72;;;;;;;7.59;73.82;99118.66;5020437;28;20085;-46
2023/11/29 09:34:20;;;;;;;18.67;6.90;;;;;;;8.09;72.01;99113.19;5007845;28;20053;-46
2023/11/29 09:36:47;;;;;;;9.95;5.10;;;;;;;8.66;71.95;99109.28;5014427;28;20046;-43
2023/11/29 09:39:17;;;;;;;13.80;5.57;;;;;;;9.21;71.77;99112.13;5005205;28;20064;-46
2023/11/29 09:41:44;;;;;;;14.57;6.00;;;;;;;9.76;70.39;99106.22;5009858;28;20165;-40
2023/11/29 09:44:11;;;;;;;12.45;5.47;;;;;;;10.38;69.81;99109.59;5012384;28;20053;-43
2023/11/29 09:46:38;;;;;;;15.80;6.45;;;;;;;10.95;68.30;99107.72;5008313;28;20048;-49
2023/11/29 09:49:05;;;;;;;10.30;5.07;;;;;;;11.35;66.21;99111.22;5010673;28;20049;-49
2023/11/29 09:51:32;;;;;;;21.13;11.05;;;;;;;11.64;66.33;99111.50;5009221;28;20077;-40
2023/11/29 09:53:59;;;;;;;17.35;9.77;;;;;;;11.78;65.80;99108.59;5016829;28;20053;-42
2023/11/29 09:56:27;;;;;;;13.80;8.80;;;;;;;11.91;63.87;99119.53;5007924;28;20676;-50
2023/11/29 09:58:55;;;;;;;12.13;6.95;;;;;;;12.20;63.74;99123.22;5006316;28;20167;-45
2023/11/29 10:01:22;;;;;;;9.07;5.35;;;;;;;12.49;63.66;99120.81;5011180;28;20071;-44
2023/11/29 10:04:06;;;;;;;8.57;4.32;;;;;;;12.92;62.80;99114.47;4999202;28;20333;-49
2023/11/29 10:06:33;;;;;;;10.05;4.20;;;;;;;13.30;61.50;99103.84;5017358;28;20573;-49
2023/11/29 10:09:05;;;;;;;6.60;3.63;;;;;;;13.55;60.21;99117.94;5008135;28;20073;-42
2023/11/29 10:11:32;;;;;;;8.10;4.75;;;;;;;13.95;59.42;99119.28;5001870;28;20057;-50
2023/11/29 10:13:59;;;;;;;8.98;4.97;;;;;;;14.39;58.80;99118.75;5012554;28;20052;-44
2023/11/29 10:16:27;;;;;;;10.25;4.70;;;;;;;14.71;57.82;99109.88;5009736;28;20454;-47
2023/11/29 10:18:54;;;;;;;10.48;5.07;;;;;;;15.15;57.22;99104.88;5011430;28;20528;-43
2023/11/29 10:21:21;;;;;;;12.00;5.43;;;;;;;15.33;56.29;99107.69;5010881;28;20050;-49
2023/11/29 10:23:48;;;;;;;8.82;5.60;;;;;;;15.30;54.83;99099.97;5018170;28;20103;-48
2023/11/29 10:26:16;;;;;;;10.90;5.60;;;;;;;15.33;54.01;99102.47;5012218;28;20069;-41
2023/11/29 10:28:43;;;;;;;10.45;5.47;;;;;;;15.32;53.24;99105.13;5015789;28;20053;-48
2023/11/29 10:31:10;;;;;;;14.65;7.43;;;;;;;15.26;52.38;99111.41;5012796;28;20403;-47
2023/11/29 10:33:40;;;;;;;8.55;4.35;;;;;;;14.95;52.31;99102.13;5006007;28;20064;-42
2023/11/29 10:36:07;;;;;;;11.77;5.15;;;;;;;14.50;52.24;99101.91;5010220;28;20050;-41
2023/11/29 10:38:41;;;;;;;13.80;7.55;;;;;;;13.79;52.09;99100.72;5007566;28;20057;-44
2023/11/29 10:41:09;;;;;;;8.35;4.57;;;;;;;13.19;53.74;99095.50;5017745;28;20046;-41
2023/11/29 10:43:38;;;;;;;7.85;3.85;;;;;;;12.68;54.10;99095.19;5015924;28;20050;-46
2023/11/29 10:46:12;;;;;;;8.82;3.35;;;;;;;12.13;54.31;99087.94;5010439;28;20364;-47
2023/11/29 10:48:44;;;;;;;11.45;6.05;;;;;;;11.72;54.86;99088.81;4990151;28;20066;-44
2023/11/29 10:51:11;;;;;;;13.23;4.75;;;;;;;11.42;55.44;99075.69;5009336;28;20045;-49
2023/11/29 10:53:37;;;;;;;5.95;2.42;;;;;;;10.99;54.93;99083.47;5005751;28;20049;-46
2023/11/29 10:56:06;;;;;;;9.65;3.42;;;;;;;10.51;55.54;99087.78;5006704;28;20118;-46
2023/11/29 11:01:10;;;;;;;28.77;8.68;;;;;;;9.64;56.74;99079.69;5008421;28;20416;-47
2023/11/29 11:03:42;;;;;;;12.75;4.43;;;;;;;9.37;57.26;99073.16;4986003;28;20046;-44
2023/11/29 11:09:28;;;;;;;10.68;4.03;;;;;;;8.78;58.32;99076.47;5041614;28;20405;-44
2023/11/29 11:11:55;;;;;;;12.65;5.03;;;;;;;8.68;58.56;99066.22;5001085;28;20622;-49
2023/11/29 11:14:31;;;;;;;21.50;7.38;;;;;;;8.57;58.78;99068.06;5000712;28;20157;-46
2023/11/29 11:19:44;;;;;;;11.93;6.18;;;;;;;8.08;59.47;99067.63;5066144;27;20396;-48
2023/11/29 11:24:59;;;;;;;11.05;4.28;;;;;;;7.91;59.88;99066.03;5076771;27;20399;-44
2023/11/29 11:27:32;;;;;;;10.88;5.68;;;;;;;7.84;59.96;99054.06;5046451;28;20056;-42
2023/11/29 11:30:04;;;;;;;11.75;6.15;;;;;;;7.83;59.80;99057.50;5042232;28;20053;-44
2023/11/29 11:37:57;;;;;;;12.60;5.93;;;;;;;7.69;59.60;99067.91;5016366;27;20413;-44
2023/11/29 11:40:27;;;;;;;10.13;4.75;;;;;;;7.74;59.13;99065.31;4998906;28;20050;-41
2023/11/29 11:42:54;;;;;;;10.20;5.93;;;;;;;7.64;59.45;99059.38;5001405;28;20054;-44
2023/11/29 11:45:22;;;;;;;8.65;4.22;;;;;;;7.42;59.04;99054.34;5000048;28;20046;-46
2023/11/29 11:47:50;;;;;;;6.70;5.13;;;;;;;7.20;60.08;99050.16;5000430;28;20080;-45
2023/11/29 11:50:17;;;;;;;6.20;3.55;;;;;;;6.97;58.24;99039.97;4997434;28;20124;-43